Time;durP1;ratioP1;P1;durP2;ratioP2;P2;SDS_P1;SDS_P2;PMS_P1;PMS_P2;Temp;Humidity;BMP_temperature;BMP_pressure;BME280_temperature;BME280_humidity;BME280_pressure;Samples;Min_cycle;Max_cycle;Signal;HPM_P1;HPM_P2
2023/07/27 00:01:24;;;;;;;7.60;4.28;;;512.00;2380.80;;;;;;5075797;28;20496;-73
2023/07/27 00:03:49;;;;;;;6.50;3.58;;;512.00;2380.80;;;;;;5075844;28;20530;-73
2023/07/27 00:06:15;;;;;;;7.32;3.78;;;487.30;2380.80;;;;;;5074792;28;20027;-73
2023/07/27 00:08:41;;;;;;;6.15;3.90;;;487.20;2380.80;;;;;;5075267;28;20048;-74
2023/07/27 00:11:07;;;;;;;7.40;4.20;;;487.20;2380.80;;;;;;5072926;28;20056;-74
2023/07/27 00:13:32;;;;;;;7.35;4.80;;;487.20;2380.80;;;;;;5073593;28;20029;-73
2023/07/27 00:15:58;;;;;;;5.85;3.72;;;487.20;2380.80;;;;;;5073447;28;20081;-73
2023/07/27 00:18:24;;;;;;;7.03;3.83;;;487.20;2380.80;;;;;;5076174;28;20025;-74
2023/07/27 00:20:49;;;;;;;9.73;3.83;;;487.20;2380.80;;;;;;5075850;28;20024;-73
2023/07/27 00:23:15;;;;;;;5.13;3.67;;;487.20;2380.80;;;;;;5087804;28;20029;-75
2023/07/27 00:25:41;;;;;;;6.95;3.40;;;487.20;2380.80;;;;;;5082161;28;20060;-74
2023/07/27 00:28:06;;;;;;;9.15;4.10;;;487.20;2380.80;;;;;;5073905;28;20052;-74
2023/07/27 00:30:32;;;;;;;5.70;3.40;;;487.10;2380.80;;;;;;5074214;28;20504;-74
2023/07/27 00:32:58;;;;;;;6.00;3.22;;;487.10;2380.80;;;;;;5077948;28;20078;-73
2023/07/27 00:35:23;;;;;;;5.65;3.28;;;487.00;2380.80;;;;;;5094242;28;20031;-75
2023/07/27 00:37:49;;;;;;;6.72;3.33;;;487.00;2380.80;;;;;;5084698;28;20083;-73
2023/07/27 00:40:17;;;;;;;4.85;3.00;;;486.90;2380.80;;;;;;5074287;28;20025;-75
2023/07/27 00:42:43;;;;;;;9.98;3.00;;;486.90;2380.80;;;;;;5073673;28;20113;-75
2023/07/27 00:45:09;;;;;;;6.97;2.90;;;486.90;2380.80;;;;;;5073675;28;20101;-74
2023/07/27 00:47:35;;;;;;;4.55;2.40;;;486.90;2380.80;;;;;;5073648;28;20044;-74
2023/07/27 00:50:01;;;;;;;5.75;2.33;;;486.90;2380.80;;;;;;5073537;28;20021;-76
2023/07/27 00:52:26;;;;;;;3.75;2.80;;;486.80;2380.80;;;;;;5073663;28;20027;-75
2023/07/27 00:54:55;;;;;;;5.32;2.90;;;486.80;2380.80;;;;;;5073616;28;20023;-75
2023/07/27 00:57:21;;;;;;;4.57;2.67;;;486.70;2380.80;;;;;;5073420;28;20031;-74
2023/07/27 00:59:47;;;;;;;7.72;3.40;;;486.80;2380.80;;;;;;5073287;28;20020;-75
2023/07/27 01:02:13;;;;;;;6.28;2.97;;;486.80;2380.80;;;;;;5073318;28;20025;-74
2023/07/27 01:04:39;;;;;;;5.15;3.25;;;486.90;2380.80;;;;;;5073269;28;20017;-75
2023/07/27 01:07:05;;;;;;;4.75;3.45;;;486.90;2380.80;;;;;;5073292;28;20417;-75
2023/07/27 01:09:31;;;;;;;5.10;3.28;;;486.90;2380.80;;;;;;5073293;28;20021;-74
2023/07/27 01:12:06;;;;;;;7.07;2.63;;;486.90;2380.80;;;;;;5073251;28;20443;-74
2023/07/27 01:14:32;;;;;;;7.82;3.35;;;486.90;2380.80;;;;;;5072793;28;20012;-76
2023/07/27 01:17:02;;;;;;;5.40;3.35;;;486.80;2380.80;;;;;;5073251;28;20024;-73
2023/07/27 01:19:38;;;;;;;4.72;3.00;;;486.80;2380.80;;;;;;5073251;28;20074;-74
2023/07/27 01:22:06;;;;;;;5.03;3.17;;;486.70;2380.80;;;;;;5073195;28;20027;-77
2023/07/27 01:24:35;;;;;;;5.88;3.13;;;486.70;2380.80;;;;;;5060122;28;20016;-75
2023/07/27 01:27:16;;;;;;;6.75;3.40;;;486.70;2380.80;;;;;;5072999;28;20458;-74
2023/07/27 01:29:52;;;;;;;9.90;3.65;;;486.80;2380.80;;;;;;5073089;28;20016;-75
2023/07/27 01:32:20;;;;;;;6.65;3.10;;;486.70;2380.80;;;;;;5071725;28;20386;-76
2023/07/27 01:34:54;;;;;;;5.13;3.28;;;486.70;2380.80;;;;;;5072921;28;20446;-73
2023/07/27 01:37:21;;;;;;;8.40;3.83;;;486.70;2380.80;;;;;;5072763;28;20044;-74
2023/07/27 01:39:51;;;;;;;5.40;3.50;;;486.70;2380.80;;;;;;5073008;28;20020;-74
2023/07/27 01:42:17;;;;;;;9.45;3.88;;;486.70;2380.80;;;;;;5073123;28;20048;-74
2023/07/27 01:44:43;;;;;;;7.25;3.58;;;486.70;2380.80;;;;;;5073064;28;20021;-74
2023/07/27 01:47:10;;;;;;;6.50;4.50;;;486.70;2380.80;;;;;;5072660;28;20064;-74
2023/07/27 01:49:39;;;;;;;6.40;4.22;;;486.50;2380.80;;;;;;5073023;28;20024;-75
2023/07/27 01:52:06;;;;;;;5.82;3.65;;;486.50;2380.80;;;;;;5072696;28;20052;-75
2023/07/27 01:54:34;;;;;;;7.13;3.88;;;486.50;2380.80;;;;;;5072859;28;20020;-74
2023/07/27 01:57:01;;;;;;;8.30;3.95;;;486.60;2380.80;;;;;;5073003;28;20070;-73
2023/07/27 01:59:28;;;;;;;11.15;3.78;;;486.50;2380.80;;;;;;5072871;28;20050;-74
2023/07/27 02:01:54;;;;;;;13.25;4.57;;;486.50;2380.80;;;;;;5072568;28;20028;-74
2023/07/27 02:04:20;;;;;;;4.93;3.35;;;486.40;2380.80;;;;;;5072729;28;20020;-74
2023/07/27 02:06:50;;;;;;;8.15;4.05;;;486.50;2380.80;;;;;;5072496;28;20041;-74
2023/07/27 02:09:16;;;;;;;6.28;4.07;;;486.50;2380.80;;;;;;5072657;28;20115;-74
2023/07/27 02:11:45;;;;;;;6.38;4.15;;;486.50;2380.80;;;;;;5072803;28;20499;-79
2023/07/27 02:14:20;;;;;;;6.35;3.75;;;486.50;2380.80;;;;;;5072589;28;20016;-79
2023/07/27 02:16:53;;;;;;;6.47;3.83;;;486.40;2380.80;;;;;;5072598;28;20021;-74
2023/07/27 02:19:26;;;;;;;5.72;3.90;;;486.40;2380.80;;;;;;5072424;28;20025;-74
2023/07/27 02:21:55;;;;;;;5.47;3.40;;;486.40;2380.80;;;;;;5072776;28;20025;-76
2023/07/27 02:24:22;;;;;;;7.13;3.55;;;486.40;2380.80;;;;;;5072529;28;20419;-74
2023/07/27 02:26:48;;;;;;;7.60;3.33;;;461.70;2380.80;;;;;;5076000;28;20028;-74
2023/07/27 02:29:13;;;;;;;8.27;3.85;;;486.40;2380.80;;;;;;5076119;28;20074;-73
2023/07/27 02:31:39;;;;;;;5.93;3.45;;;486.40;2380.80;;;;;;5076336;28;20359;-74
2023/07/27 02:34:05;;;;;;;6.40;3.15;;;461.70;2380.80;;;;;;5076022;28;20632;-73
2023/07/27 02:36:31;;;;;;;9.55;3.53;;;461.60;2380.80;;;;;;5075778;28;20555;-74
2023/07/27 02:38:56;;;;;;;4.60;3.03;;;461.60;2380.80;;;;;;5075993;28;20032;-74
2023/07/27 02:41:22;;;;;;;4.78;3.20;;;461.60;2380.80;;;;;;5076213;28;20039;-74
2023/07/27 02:43:48;;;;;;;6.55;3.50;;;461.60;2380.80;;;;;;5076014;28;20034;-74
2023/07/27 02:46:13;;;;;;;7.70;3.60;;;461.50;2380.80;;;;;;5075940;28;20110;-74
2023/07/27 02:48:39;;;;;;;5.57;3.40;;;461.50;2380.80;;;;;;5061171;28;20021;-74
2023/07/27 02:51:05;;;;;;;5.07;3.38;;;461.50;2380.80;;;;;;5075891;28;20097;-74
2023/07/27 02:53:31;;;;;;;6.75;3.33;;;461.50;2380.80;;;;;;5075728;28;20028;-74
2023/07/27 02:56:00;;;;;;;6.25;3.75;;;461.50;2380.80;;;;;;5075905;28;20021;-74
2023/07/27 02:58:27;;;;;;;6.75;3.00;;;461.40;2380.80;;;;;;5075770;28;20069;-74
2023/07/27 03:00:54;;;;;;;3.88;2.88;;;461.30;2380.80;;;;;;5075670;28;20052;-74
2023/07/27 03:03:21;;;;;;;6.63;3.80;;;461.40;2380.80;;;;;;5075334;28;20107;-75
2023/07/27 03:05:46;;;;;;;4.85;2.90;;;461.30;2380.80;;;;;;5075777;28;20429;-74
2023/07/27 03:08:12;;;;;;;8.60;3.25;;;461.20;2380.80;;;;;;5055825;28;20045;-77
2023/07/27 03:10:39;;;;;;;8.23;3.53;;;461.30;2380.80;;;;;;5068726;28;20032;-74
2023/07/27 03:13:05;;;;;;;4.50;2.80;;;461.20;2380.80;;;;;;5075439;28;20029;-74
2023/07/27 03:15:30;;;;;;;6.10;3.45;;;461.20;2380.80;;;;;;5075518;28;20050;-74
2023/07/27 03:17:56;;;;;;;6.03;3.30;;;461.20;2380.80;;;;;;5062246;28;20455;-74
2023/07/27 03:20:22;;;;;;;4.90;3.38;;;461.10;2380.80;;;;;;5074050;28;20036;-74
2023/07/27 03:22:48;;;;;;;6.20;3.45;;;461.00;2380.80;;;;;;5062196;28;20374;-75
2023/07/27 03:25:14;;;;;;;6.45;2.80;;;460.80;2380.80;;;;;;5075367;28;20021;-73
2023/07/27 03:27:40;;;;;;;4.13;2.95;;;460.80;2380.80;;;;;;5075129;28;20024;-74
2023/07/27 03:30:06;;;;;;;4.15;3.22;;;460.80;2380.80;;;;;;5075329;28;20081;-74
2023/07/27 03:32:32;;;;;;;6.03;3.47;;;460.80;2380.80;;;;;;5075144;28;20684;-73
2023/07/27 03:34:58;;;;;;;6.40;2.90;;;436.10;2355.20;;;;;;5075098;28;20036;-73
2023/07/27 03:37:23;;;;;;;6.50;3.47;;;436.10;2355.20;;;;;;5074182;28;20558;-73
2023/07/27 03:39:49;;;;;;;4.97;3.05;;;435.90;2355.20;;;;;;5075176;28;20418;-72
2023/07/27 03:42:15;;;;;;;6.03;2.78;;;435.90;2355.20;;;;;;5074872;28;20020;-73
2023/07/27 03:44:42;;;;;;;4.30;2.97;;;435.90;2355.20;;;;;;5075045;28;20036;-72
2023/07/27 03:47:07;;;;;;;5.80;3.38;;;435.90;2355.20;;;;;;5073749;28;20033;-74
2023/07/27 03:49:33;;;;;;;5.30;2.90;;;436.00;2355.20;;;;;;5077568;28;20020;-72
2023/07/27 03:51:59;;;;;;;5.43;2.47;;;436.00;2355.20;;;;;;5074877;28;20029;-72
2023/07/27 03:54:24;;;;;;;5.72;3.08;;;436.10;2355.20;;;;;;5076399;28;20374;-76
2023/07/27 03:56:50;;;;;;;4.68;2.97;;;435.90;2355.20;;;;;;5074670;28;20416;-72
2023/07/27 03:59:16;;;;;;;5.60;3.38;;;436.10;2355.20;;;;;;5074194;28;20023;-72
2023/07/27 04:01:42;;;;;;;6.38;3.08;;;436.10;2355.20;;;;;;5076879;28;20017;-73
2023/07/27 04:04:07;;;;;;;4.97;2.70;;;436.10;2355.20;;;;;;5077715;28;20021;-74
2023/07/27 04:06:33;;;;;;;5.72;2.85;;;436.10;2355.20;;;;;;5074018;28;20025;-73
2023/07/27 04:08:59;;;;;;;5.55;3.05;;;436.00;2355.20;;;;;;5097910;28;20071;-74
2023/07/27 04:11:24;;;;;;;4.72;2.85;;;436.10;2355.20;;;;;;5079519;28;20031;-74
2023/07/27 04:13:50;;;;;;;7.00;3.40;;;435.90;2355.20;;;;;;5079632;28;20057;-75
2023/07/27 04:16:16;;;;;;;7.18;3.53;;;435.90;2355.20;;;;;;5081016;28;20035;-73
2023/07/27 04:18:41;;;;;;;6.20;3.35;;;435.90;2355.20;;;;;;5082975;28;20063;-73
2023/07/27 04:21:07;;;;;;;7.03;3.53;;;435.90;2355.20;;;;;;5078854;28;20482;-73
2023/07/27 04:23:33;;;;;;;6.15;3.63;;;436.00;2355.20;;;;;;5082782;28;20496;-75
2023/07/27 04:26:02;;;;;;;6.53;3.22;;;436.00;2355.20;;;;;;5078891;28;20051;-74
2023/07/27 04:28:27;;;;;;;7.03;3.40;;;435.90;2355.20;;;;;;5085519;28;20114;-74
2023/07/27 04:30:53;;;;;;;6.05;2.97;;;436.00;2355.20;;;;;;5076270;28;20158;-75
2023/07/27 04:33:19;;;;;;;10.68;3.15;;;436.10;2355.20;;;;;;5080972;28;20393;-73
2023/07/27 04:35:44;;;;;;;6.70;3.08;;;436.10;2355.20;;;;;;5078816;28;20394;-73
2023/07/27 04:38:10;;;;;;;5.20;2.95;;;436.10;2355.20;;;;;;5083568;28;20048;-74
2023/07/27 04:40:35;;;;;;;8.43;2.97;;;460.80;2380.80;;;;;;5082412;28;20034;-73
2023/07/27 04:43:01;;;;;;;4.53;2.88;;;460.80;2380.80;;;;;;5077826;28;20440;-73
2023/07/27 04:45:27;;;;;;;5.78;2.85;;;435.90;2355.20;;;;;;5073701;28;20033;-72
2023/07/27 04:47:52;;;;;;;5.47;2.90;;;436.10;2355.20;;;;;;5076667;28;20040;-74
2023/07/27 04:50:18;;;;;;;8.50;2.90;;;460.80;2380.80;;;;;;5058126;28;20029;-75
2023/07/27 04:52:44;;;;;;;3.75;2.13;;;460.80;2380.80;;;;;;5053762;28;20029;-74
2023/07/27 04:55:09;;;;;;;4.30;2.70;;;460.80;2380.80;;;;;;5073184;28;20024;-74
2023/07/27 04:57:35;;;;;;;4.43;2.75;;;460.80;2380.80;;;;;;5072901;28;20066;-76
2023/07/27 05:00:01;;;;;;;3.95;2.50;;;460.80;2380.80;;;;;;5073481;28;20024;-75
2023/07/27 05:02:27;;;;;;;6.43;2.40;;;460.80;2380.80;;;;;;5073341;28;20075;-74
2023/07/27 05:04:52;;;;;;;5.68;2.35;;;460.80;2380.80;;;;;;5073123;28;20044;-74
2023/07/27 05:07:19;;;;;;;5.22;2.65;;;460.90;2380.80;;;;;;5072936;28;20170;-74
2023/07/27 05:09:44;;;;;;;5.78;2.78;;;460.90;2380.80;;;;;;5073433;28;20016;-78
2023/07/27 05:12:10;;;;;;;4.03;2.42;;;461.00;2380.80;;;;;;5073388;28;20450;-76
2023/07/27 05:14:36;;;;;;;3.63;2.20;;;461.00;2380.80;;;;;;5073158;28;20017;-74
2023/07/27 05:17:01;;;;;;;4.18;2.28;;;461.10;2380.80;;;;;;5073081;28;20111;-72
2023/07/27 05:19:27;;;;;;;5.60;2.83;;;461.10;2380.80;;;;;;5073189;28;20082;-74
2023/07/27 05:21:53;;;;;;;3.72;2.40;;;461.10;2380.80;;;;;;5073061;28;20032;-75
2023/07/27 05:24:18;;;;;;;6.55;2.85;;;461.10;2380.80;;;;;;5073168;28;20484;-75
2023/07/27 05:26:44;;;;;;;3.72;2.40;;;461.30;2380.80;;;;;;5072981;28;20048;-74
2023/07/27 05:29:10;;;;;;;5.00;2.30;;;461.30;2380.80;;;;;;5073172;28;20032;-73
2023/07/27 05:31:35;;;;;;;6.22;2.20;;;461.30;2380.80;;;;;;5072987;28;20052;-74
2023/07/27 05:34:01;;;;;;;5.47;2.55;;;461.30;2380.80;;;;;;5072890;28;20024;-74
2023/07/27 05:36:27;;;;;;;4.82;2.05;;;461.30;2380.80;;;;;;5072598;28;20114;-74
2023/07/27 05:38:54;;;;;;;14.05;2.30;;;461.40;2380.80;;;;;;5072901;28;20037;-75
2023/07/27 05:41:19;;;;;;;3.95;1.90;;;461.50;2380.80;;;;;;5073067;28;20020;-74
2023/07/27 05:43:45;;;;;;;3.15;2.05;;;461.40;2380.80;;;;;;5072678;28;20020;-75
2023/07/27 05:46:11;;;;;;;5.15;2.00;;;461.40;2380.80;;;;;;5073011;28;20031;-74
2023/07/27 05:48:36;;;;;;;7.47;2.00;;;461.50;2380.80;;;;;;5072844;28;20025;-75
2023/07/27 05:51:03;;;;;;;2.78;1.80;;;461.60;2380.80;;;;;;5072860;28;20039;-74
2023/07/27 05:53:29;;;;;;;6.38;2.17;;;461.60;2380.80;;;;;;5059232;28;20024;-75
2023/07/27 05:55:55;;;;;;;3.30;1.92;;;486.40;2380.80;;;;;;5072784;28;20029;-75
2023/07/27 05:58:20;;;;;;;3.83;2.38;;;486.50;2380.80;;;;;;5072577;28;20016;-73
2023/07/27 06:00:46;;;;;;;5.65;2.42;;;486.40;2380.80;;;;;;5076559;28;20021;-75
2023/07/27 06:03:12;;;;;;;4.43;2.20;;;486.60;2380.80;;;;;;5076564;28;20052;-75
2023/07/27 06:05:45;;;;;;;4.88;1.95;;;486.60;2380.80;;;;;;5076638;28;20028;-76
2023/07/27 06:08:11;;;;;;;3.47;2.10;;;486.60;2380.80;;;;;;5076592;28;20429;-73
2023/07/27 06:10:37;;;;;;;3.08;2.15;;;486.50;2380.80;;;;;;5076644;28;20021;-74
2023/07/27 06:13:04;;;;;;;4.22;2.75;;;486.60;2380.80;;;;;;5076654;28;20029;-74
2023/07/27 06:15:30;;;;;;;4.80;2.50;;;486.70;2380.80;;;;;;5076494;28;20024;-74
2023/07/27 06:17:55;;;;;;;6.88;2.50;;;486.70;2380.80;;;;;;5076542;28;20422;-75
2023/07/27 06:20:21;;;;;;;7.07;2.63;;;486.80;2380.80;;;;;;5076386;28;20404;-74
2023/07/27 06:22:47;;;;;;;4.82;2.25;;;487.00;2380.80;;;;;;5076410;28;20090;-74
2023/07/27 06:25:12;;;;;;;4.07;2.00;;;487.10;2380.80;;;;;;5076315;28;20103;-74
2023/07/27 06:27:38;;;;;;;3.90;2.38;;;487.10;2380.80;;;;;;5074560;28;20115;-72
2023/07/27 06:30:04;;;;;;;3.92;2.15;;;487.20;2380.80;;;;;;5076032;28;20025;-75
2023/07/27 06:32:30;;;;;;;5.20;2.20;;;487.30;2380.80;;;;;;5074915;28;20069;-74
2023/07/27 06:34:56;;;;;;;5.88;1.83;;;512.10;2380.80;;;;;;5076045;28;20032;-74
2023/07/27 06:37:21;;;;;;;8.20;2.50;;;512.30;2380.80;;;;;;5075773;28;20059;-73
2023/07/27 06:39:48;;;;;;;3.45;2.05;;;512.50;2380.80;;;;;;5076087;28;20016;-75
2023/07/27 06:42:14;;;;;;;11.73;6.85;;;;;;;;;;5075838;28;20025;-74
2023/07/27 06:44:39;;;;;;;8.32;2.72;;;512.80;2380.80;;;;;;5076090;28;20021;-76
2023/07/27 06:47:05;;;;;;;6.47;3.20;;;512.70;2380.80;;;;;;5075701;28;20020;-75
2023/07/27 06:49:31;;;;;;;2.97;2.00;;;512.80;2380.80;;;;;;5075823;28;20025;-75
2023/07/27 06:51:57;;;;;;;6.75;2.30;;;512.70;2380.80;;;;;;5075581;28;20099;-75
2023/07/27 06:54:22;;;;;;;2.92;1.83;;;537.60;2406.40;;;;;;5075592;28;20032;-74
2023/07/27 06:56:48;;;;;;;17.00;9.60;;;537.80;2406.40;;;;;;5075615;28;20028;-76
2023/07/27 06:59:14;;;;;;;12.00;5.95;;;538.00;2406.40;;;;;;5075731;28;20385;-75
2023/07/27 07:01:39;;;;;;;9.55;4.50;;;538.20;2406.40;;;;;;5075572;28;20025;-75
2023/07/27 07:04:05;;;;;;;6.90;4.05;;;538.00;2355.20;;;;;;5075663;28;20462;-74
2023/07/27 07:06:31;;;;;;;3.88;2.30;;;538.40;2329.60;;;;;;5075213;28;20486;-75
2023/07/27 07:08:57;;;;;;;4.07;2.00;;;538.30;2329.60;;;;;;5075756;28;20040;-76
2023/07/27 07:11:23;;;;;;;10.48;5.75;;;538.50;2278.40;;;;;;5074548;28;20028;-74
2023/07/27 07:13:49;;;;;;;9.07;4.30;;;563.40;2252.80;;;;;;5075693;28;20096;-75
2023/07/27 07:16:15;;;;;;;8.90;5.20;;;563.50;2278.40;;;;;;5075347;28;20124;-75
2023/07/27 07:18:41;;;;;;;15.32;7.30;;;563.60;2252.80;;;;;;5063381;28;20025;-75
2023/07/27 07:21:07;;;;;;;166.23;88.20;;;563.60;2252.80;;;;;;5074195;28;20021;-75
2023/07/27 07:23:33;;;;;;;18.55;9.15;;;563.80;2227.20;;;;;;5075313;28;20028;-75
2023/07/27 07:25:59;;;;;;;97.05;53.03;;;563.90;2150.40;;;;;;5074913;28;20035;-76
2023/07/27 07:28:24;;;;;;;6.85;3.67;;;564.10;2150.40;;;;;;5074802;28;20466;-75
2023/07/27 07:30:50;;;;;;;6.22;2.63;;;564.10;2150.40;;;;;;5075115;28;20024;-76
2023/07/27 07:33:16;;;;;;;34.80;15.10;;;588.90;2150.40;;;;;;5074760;28;20032;-75
2023/07/27 07:35:42;;;;;;;278.42;169.93;;;589.10;2099.20;;;;;;5074634;28;20025;-73
2023/07/27 07:38:08;;;;;;;43.05;25.85;;;589.00;2048.00;;;;;;5074535;28;20058;-74
2023/07/27 07:40:33;;;;;;;21.58;12.77;;;589.40;2048.00;;;;;;5074819;28;20028;-74
2023/07/27 07:42:59;;;;;;;7.88;2.95;;;589.50;2022.40;;;;;;5074845;28;20063;-74
2023/07/27 07:45:25;;;;;;;6.47;2.70;;;589.60;1971.20;;;;;;5074665;28;20012;-76
2023/07/27 07:47:51;;;;;;;5.65;1.98;;;589.70;1971.20;;;;;;5074652;28;20040;-74
2023/07/27 07:50:17;;;;;;;12.63;6.47;;;589.40;1971.20;;;;;;5074463;28;20013;-75
2023/07/27 07:52:42;;;;;;;135.70;75.85;;;589.70;1920.00;;;;;;5074756;28;20036;-73
2023/07/27 07:55:09;;;;;;;17.60;8.05;;;614.60;1894.40;;;;;;5074442;28;20017;-75
2023/07/27 07:57:34;;;;;;;5.35;2.47;;;614.80;1894.40;;;;;;5073865;28;20024;-73
2023/07/27 08:00:00;;;;;;;16.20;8.10;;;614.80;1920.00;;;;;;5079557;28;20036;-74
2023/07/27 08:02:26;;;;;;;12.18;7.13;;;614.90;1868.80;;;;;;5079789;28;20125;-74
2023/07/27 08:04:52;;;;;;;87.35;52.70;;;615.00;1843.20;;;;;;5082841;28;20042;-73
2023/07/27 08:07:17;;;;;;;60.65;33.92;;;615.00;1868.80;;;;;;5075397;28;20486;-74
2023/07/27 08:09:43;;;;;;;16.27;9.38;;;615.00;1843.20;;;;;;5079491;28;20028;-76
2023/07/27 08:12:09;;;;;;;228.02;142.07;;;615.10;1792.00;;;;;;5080011;28;20036;-76
2023/07/27 08:14:35;;;;;;;101.47;56.40;;;615.10;1792.00;;;;;;5085347;28;20028;-75
2023/07/27 08:17:00;;;;;;;16.75;8.63;;;615.30;1766.40;;;;;;5074315;28;20030;-75
2023/07/27 08:19:26;;;;;;;37.50;23.33;;;640.00;1766.40;;;;;;5080355;28;20025;-76
2023/07/27 08:21:52;;;;;;;9.30;3.95;;;640.40;1740.80;;;;;;5081362;28;20520;-76
2023/07/27 08:24:17;;;;;;;6.07;2.35;;;640.60;1715.20;;;;;;5083340;28;20024;-74
2023/07/27 08:26:43;;;;;;;5.72;2.33;;;640.80;1689.60;;;;;;5082153;28;20042;-74
2023/07/27 08:29:09;;;;;;;5.70;2.47;;;640.90;1689.60;;;;;;5082668;28;20076;-73
2023/07/27 08:31:34;;;;;;;33.85;21.08;;;665.70;1715.20;;;;;;5081633;28;20025;-75
2023/07/27 08:34:00;;;;;;;24.55;13.23;;;665.90;1689.60;;;;;;5079421;28;20062;-75
2023/07/27 08:36:26;;;;;;;20.20;11.00;;;665.60;1664.00;;;;;;5081358;28;20047;-75
2023/07/27 08:38:51;;;;;;;195.82;127.70;;;665.90;1664.00;;;;;;5076437;28;20036;-80
2023/07/27 08:41:17;;;;;;;437.25;274.75;;;665.90;1638.40;;;;;;5083049;28;20028;-73
2023/07/27 08:43:43;;;;;;;29.05;17.48;;;666.20;1638.40;;;;;;5079010;28;20028;-76
2023/07/27 08:46:10;;;;;;;22.40;12.85;;;666.20;1612.80;;;;;;5077423;28;20052;-74
2023/07/27 08:48:37;;;;;;;7.22;3.47;;;666.30;1638.40;;;;;;5083823;28;20452;-75
2023/07/27 08:51:02;;;;;;;7.28;3.53;;;666.20;1612.80;;;;;;5082419;28;20378;-74
2023/07/27 08:53:29;;;;;;;8.55;4.35;;;666.30;1587.20;;;;;;5082661;28;20482;-76
2023/07/27 08:55:58;;;;;;;8.65;3.65;;;666.30;1536.00;;;;;;5079721;28;20023;-74
2023/07/27 08:58:24;;;;;;;183.38;129.05;;;;;;;;;;5079634;28;20029;-77
2023/07/27 09:00:50;;;;;;;14.93;9.32;;;;;;;;;;5081408;28;20024;-76
2023/07/27 09:03:16;;;;;;;5.60;3.45;;;;;;;;;;5087165;28;20032;-74
2023/07/27 09:05:43;;;;;;;21.20;12.20;;;666.50;1510.40;;;;;;5076802;28;20024;-79
2023/07/27 09:08:13;;;;;;;14.05;6.75;;;691.20;1510.40;;;;;;5079939;28;20127;-75
2023/07/27 09:10:41;;;;;;;5.00;2.60;;;691.20;1536.00;;;;;;5073907;28;20048;-75
2023/07/27 09:13:07;;;;;;;231.60;142.07;;;691.50;1536.00;;;;;;5079259;28;20029;-75
2023/07/27 09:15:34;;;;;;;197.30;118.38;;;691.80;1484.80;;;;;;5081246;28;20039;-75
2023/07/27 09:18:01;;;;;;;200.38;109.25;;;691.70;1459.20;;;;;;5071449;28;20527;-73
2023/07/27 09:20:28;;;;;;;98.25;56.15;;;691.70;1459.20;;;;;;5083956;28;20028;-74
2023/07/27 09:22:56;;;;;;;69.45;33.83;;;691.70;1433.60;;;;;;5079690;28;20127;-74
2023/07/27 09:25:24;;;;;;;84.55;55.83;;;691.70;1433.60;;;;;;5073652;28;20020;-73
2023/07/27 09:27:54;;;;;;;19.90;12.77;;;691.50;1459.20;;;;;;5074743;28;20115;-73
2023/07/27 09:30:22;;;;;;;176.52;99.72;;;691.80;1433.60;;;;;;5079134;28;20024;-73
2023/07/27 09:32:48;;;;;;;120.15;64.25;;;691.60;1459.20;;;;;;5071501;28;20360;-74
2023/07/27 09:35:15;;;;;;;9.30;5.65;;;691.70;1459.20;;;;;;5074411;28;20028;-73
2023/07/27 09:37:49;;;;;;;4.60;2.35;;;691.90;1382.40;;;;;;5086183;28;20135;-73
2023/07/27 09:40:17;;;;;;;4.28;2.55;;;716.80;1433.60;;;;;;5080011;28;20115;-73
2023/07/27 09:42:45;;;;;;;112.20;73.13;;;716.80;1433.60;;;;;;5082526;28;20024;-74
2023/07/27 09:45:12;;;;;;;43.15;28.15;;;716.80;1433.60;;;;;;5080219;28;20070;-73
2023/07/27 09:47:39;;;;;;;6.18;3.72;;;;;;;;;;5074061;28;20032;-78
2023/07/27 09:50:06;;;;;;;6.75;3.22;;;717.30;1331.20;;;;;;5078255;28;20582;-74
2023/07/27 09:52:35;;;;;;;4.90;2.88;;;717.60;1280.00;;;;;;5069154;28;20042;-74
2023/07/27 09:55:01;;;;;;;4.45;2.17;;;717.50;1305.60;;;;;;5076265;28;20028;-74
2023/07/27 09:57:27;;;;;;;9.88;4.57;;;;;;;;;;5075167;28;20381;-74
2023/07/27 09:59:53;;;;;;;7.47;2.35;;;;;;;;;;5079735;28;20029;-75
2023/07/27 10:02:21;;;;;;;7.72;2.20;;;742.60;1305.60;;;;;;5081000;28;20028;-72
2023/07/27 10:04:51;;;;;;;102.78;53.83;;;742.40;1254.40;;;;;;5080381;28;20090;-74
2023/07/27 10:07:20;;;;;;;322.02;198.27;;;742.40;1305.60;;;;;;5081318;28;20041;-73
2023/07/27 10:09:47;;;;;;;21.58;12.32;;;742.40;1305.60;;;;;;5079023;28;20466;-77
2023/07/27 10:12:33;;;;;;;4.43;2.05;;;742.50;1331.20;;;;;;5078884;28;20106;-73
2023/07/27 10:15:21;;;;;;;33.25;16.13;;;742.50;1280.00;;;;;;5077752;28;20138;-75
2023/07/27 10:17:54;;;;;;;13.65;6.35;;;742.80;1280.00;;;;;;5079885;28;20029;-72
2023/07/27 10:20:29;;;;;;;9.55;5.18;;;717.40;1331.20;;;;;;5072859;28;20470;-74
2023/07/27 10:23:11;;;;;;;8.02;3.28;;;717.00;1331.20;;;;;;5079211;28;20036;-73
2023/07/27 10:25:55;;;;;;;10.02;2.30;;;742.40;1356.80;;;;;;5073927;28;20050;-74
2023/07/27 10:28:35;;;;;;;4.22;2.05;;;742.90;1280.00;;;;;;5076267;28;20028;-74
2023/07/27 10:31:25;;;;;;;6.57;2.05;;;742.90;1280.00;;;;;;5075427;28;20020;-73
2023/07/27 10:34:03;;;;;;;5.03;2.70;;;743.00;1254.40;;;;;;5073144;28;20527;-73
2023/07/27 10:36:47;;;;;;;4.80;2.00;;;743.10;1203.20;;;;;;5079894;28;20028;-73
2023/07/27 10:39:18;;;;;;;2.10;1.45;;;742.80;1254.40;;;;;;5076184;28;20078;-73
2023/07/27 10:42:02;;;;;;;5.97;1.90;;;717.20;1228.80;;;;;;5077430;28;20024;-73
2023/07/27 10:44:40;;;;;;;4.55;2.40;;;717.40;1254.40;;;;;;5077946;28;20069;-77
2023/07/27 10:47:08;;;;;;;26.25;15.82;;;742.50;1280.00;;;;;;5083591;28;20040;-73
2023/07/27 10:49:55;;;;;;;4.45;2.30;;;742.70;1254.40;;;;;;5081280;28;20111;-73
2023/07/27 10:52:23;;;;;;;14.52;9.20;;;742.90;1228.80;;;;;;5085802;28;20111;-73
2023/07/27 10:54:49;;;;;;;34.92;18.58;;;742.50;1254.40;;;;;;5085293;28;20033;-72
2023/07/27 10:57:17;;;;;;;6.38;1.92;;;717.40;1228.80;;;;;;5079861;28;20024;-74
2023/07/27 10:59:46;;;;;;;5.13;1.60;;;742.70;1254.40;;;;;;5081079;28;20071;-74
2023/07/27 11:02:16;;;;;;;5.07;1.90;;;742.40;1228.80;;;;;;5081086;28;20112;-72
2023/07/27 11:04:42;;;;;;;2.97;1.63;;;717.70;1177.60;;;;;;5084060;28;20047;-75
2023/07/27 11:07:11;;;;;;;290.55;178.10;;;716.90;1254.40;;;;;;5082453;28;20036;-72
2023/07/27 11:09:38;;;;;;;32.42;19.67;;;716.90;1280.00;;;;;;5080585;28;20032;-73
2023/07/27 11:12:04;;;;;;;31.67;19.40;;;717.40;1280.00;;;;;;5082758;28;20097;-73
2023/07/27 11:14:30;;;;;;;5.90;3.08;;;742.40;1228.80;;;;;;5081596;28;20024;-74
2023/07/27 11:16:56;;;;;;;112.85;71.72;;;717.60;1228.80;;;;;;5083034;28;20112;-73
2023/07/27 11:19:25;;;;;;;84.65;56.80;;;717.70;1254.40;;;;;;5080196;28;20059;-71
2023/07/27 11:21:51;;;;;;;11.15;6.47;;;717.40;1203.20;;;;;;5084028;28;20021;-73
2023/07/27 11:24:18;;;;;;;106.05;68.43;;;717.70;1228.80;;;;;;5081335;28;20024;-73
2023/07/27 11:26:44;;;;;;;104.22;63.33;;;742.50;1203.20;;;;;;5075259;28;20063;-72
2023/07/27 11:29:10;;;;;;;31.83;19.58;;;742.60;1203.20;;;;;;5080645;28;20470;-73
2023/07/27 11:31:36;;;;;;;5.05;2.90;;;717.50;1203.20;;;;;;5081993;28;20039;-72
2023/07/27 11:34:03;;;;;;;5.28;2.03;;;717.30;1228.80;;;;;;5082167;28;20458;-72
2023/07/27 11:36:31;;;;;;;19.88;2.85;;;742.40;1203.20;;;;;;5083648;28;20036;-72
2023/07/27 11:38:58;;;;;;;5.80;1.88;;;742.80;1203.20;;;;;;5089073;28;20035;-72
2023/07/27 11:41:29;;;;;;;4.18;1.70;;;742.70;1177.60;;;;;;5083910;28;20094;-72
2023/07/27 11:43:56;;;;;;;11.32;7.15;;;717.50;1203.20;;;;;;5080217;28;20109;-73
2023/07/27 11:46:26;;;;;;;5.45;2.10;;;717.70;1177.60;;;;;;5074687;28;20017;-73
2023/07/27 11:48:52;;;;;;;4.97;1.95;;;717.30;1228.80;;;;;;5080019;28;20120;-73
2023/07/27 11:51:18;;;;;;;2.90;1.98;;;717.10;1203.20;;;;;;5082757;28;20042;-74
2023/07/27 11:53:45;;;;;;;1.88;1.40;;;716.80;1203.20;;;;;;5078332;28;20119;-73
2023/07/27 11:56:12;;;;;;;6.80;2.08;;;742.40;1228.80;;;;;;5083028;28;20024;-72
2023/07/27 11:58:38;;;;;;;2.72;1.70;;;742.80;1203.20;;;;;;5079317;28;20024;-75
2023/07/27 12:01:04;;;;;;;3.25;1.50;;;742.90;1203.20;;;;;;5075702;28;20484;-76
2023/07/27 12:03:31;;;;;;;5.45;1.77;;;742.70;1152.00;;;;;;5075416;28;20524;-76
2023/07/27 12:05:57;;;;;;;3.30;1.65;;;717.70;1177.60;;;;;;5083299;28;20052;-76
2023/07/27 12:08:23;;;;;;;3.60;1.90;;;742.40;1177.60;;;;;;5085220;28;20043;-75
2023/07/27 12:10:59;;;;;;;6.38;2.33;;;742.90;1152.00;;;;;;5077428;28;20024;-75
2023/07/27 12:13:25;;;;;;;;;;;743.30;1177.60;;;;;;5082357;28;20692;-76
2023/07/27 12:15:59;;;;;;;4.30;2.05;;;768.20;1126.40;;;;;;5078883;28;20457;-75